CA-0275 weather

CLOSED Parrsboro Airport
Nova Scotia, Canada

Public forecast

Using degrees Celsius for public forecast. Weather courtesy of forecast.io.

Closest aviation weather report (METAR) to Parrsboro Airport

Closest report is CFB Greenwood, 35.8 nm (66.3 km) SW. Retrieved 2020/08/07 18:00 UTC (39 minutes ago):

CYZX 071800Z 26009G15KT 15SM FEW050 BKN250 28/08 A3014 RMK CU1CI7 SLP206

Closest aviation forecast (TAF) to Parrsboro Airport

Closest forecast is CFB Greenwood, 35.8 nm (66.3 km) SW. Retrieved 2020/08/07 18:33 UTC (6 minutes ago):

TAF CYZX 071730Z 0718/0818 29008G18KT P6SM BKN250 FM072300 24005KT P6SM FEW060 OVC250 FM080500 VRB03KT P6SM SCT250 FM081200 VRB03KT P6SM FEW050 SCT120 OVC220 RMK NXT FCST BY 080000Z